sensor_id;sensor_type;location;lat;lon;timestamp;temperature;humidity
12847;DHT22;6492;48.128;8.320;2022-09-11T08:15:32;14.60;31.30
12847;DHT22;6492;48.128;8.320;2022-09-11T10:20:43;20.00;11.20
12847;DHT22;6492;48.128;8.320;2022-09-11T10:24:51;20.70;10.10
12847;DHT22;6492;48.128;8.320;2022-09-11T10:29:04;21.20;6.50
12847;DHT22;6492;48.128;8.320;2022-09-11T10:33:17;21.10;6.90
12847;DHT22;6492;48.128;8.320;2022-09-11T10:37:24;21.30;6.40
12847;DHT22;6492;48.128;8.320;2022-09-11T10:41:27;21.20;5.70
12847;DHT22;6492;48.128;8.320;2022-09-11T10:45:33;21.20;5.80
12847;DHT22;6492;48.128;8.320;2022-09-11T10:49:35;21.50;6.20
12847;DHT22;6492;48.128;8.320;2022-09-11T10:53:58;21.80;5.50
12847;DHT22;6492;48.128;8.320;2022-09-11T10:58:06;22.40;4.40
12847;DHT22;6492;48.128;8.320;2022-09-11T11:02:19;22.40;3.80
12847;DHT22;6492;48.128;8.320;2022-09-11T11:06:33;22.10;4.30
12847;DHT22;6492;48.128;8.320;2022-09-11T11:10:52;22.10;3.40
12847;DHT22;6492;48.128;8.320;2022-09-11T11:15:15;22.20;4.50
12847;DHT22;6492;48.128;8.320;2022-09-11T11:19:31;22.70;2.70
12847;DHT22;6492;48.128;8.320;2022-09-11T11:23:48;23.10;1.20
12847;DHT22;6492;48.128;8.320;2022-09-11T11:28:11;23.50;1.00
12847;DHT22;6492;48.128;8.320;2022-09-11T11:32:28;24.10;1.00
12847;DHT22;6492;48.128;8.320;2022-09-11T11:36:39;25.20;1.00
12847;DHT22;6492;48.128;8.320;2022-09-11T11:40:46;25.30;1.00
12847;DHT22;6492;48.128;8.320;2022-09-11T11:44:53;25.10;1.00
12847;DHT22;6492;48.128;8.320;2022-09-11T11:48:58;24.70;1.00
12847;DHT22;6492;48.128;8.320;2022-09-11T11:53:04;24.40;1.00
12847;DHT22;6492;48.128;8.320;2022-09-11T11:57:31;24.10;1.00
12847;DHT22;6492;48.128;8.320;2022-09-11T12:01:41;24.50;1.00
12847;DHT22;6492;48.128;8.320;2022-09-11T12:05:44;24.50;1.00
12847;DHT22;6492;48.128;8.320;2022-09-11T12:09:46;24.30;1.00
12847;DHT22;6492;48.128;8.320;2022-09-11T12:13:48;23.60;1.00
12847;DHT22;6492;48.128;8.320;2022-09-11T12:32:43;20.70;6.60
12847;DHT22;6492;48.128;8.320;2022-09-11T12:36:50;21.80;4.10
12847;DHT22;6492;48.128;8.320;2022-09-11T12:40:56;22.40;1.80
12847;DHT22;6492;48.128;8.320;2022-09-11T12:44:59;22.70;1.20
12847;DHT22;6492;48.128;8.320;2022-09-11T12:49:09;23.10;1.00
12847;DHT22;6492;48.128;8.320;2022-09-11T12:53:15;23.50;1.00
12847;DHT22;6492;48.128;8.320;2022-09-11T12:57:24;24.20;1.00
12847;DHT22;6492;48.128;8.320;2022-09-11T13:01:29;25.00;1.00
12847;DHT22;6492;48.128;8.320;2022-09-11T13:05:35;25.70;1.00
12847;DHT22;6492;48.128;8.320;2022-09-11T13:09:40;26.30;1.00
12847;DHT22;6492;48.128;8.320;2022-09-11T13:13:42;26.70;1.00
12847;DHT22;6492;48.128;8.320;2022-09-11T13:17:48;26.80;1.00
12847;DHT22;6492;48.128;8.320;2022-09-11T13:21:52;27.20;1.00
12847;DHT22;6492;48.128;8.320;2022-09-11T13:25:56;26.90;1.00
12847;DHT22;6492;48.128;8.320;2022-09-11T13:29:59;27.20;1.00
12847;DHT22;6492;48.128;8.320;2022-09-11T13:34:04;27.20;1.00
12847;DHT22;6492;48.128;8.320;2022-09-11T13:38:11;26.60;1.00
12847;DHT22;6492;48.128;8.320;2022-09-11T13:42:18;26.70;1.00
12847;DHT22;6492;48.128;8.320;2022-09-11T13:46:25;27.10;1.00
12847;DHT22;6492;48.128;8.320;2022-09-11T13:50:30;26.70;1.00
12847;DHT22;6492;48.128;8.320;2022-09-11T13:54:35;26.10;1.00
12847;DHT22;6492;48.128;8.320;2022-09-11T13:58:39;25.10;1.00
12847;DHT22;6492;48.128;8.320;2022-09-11T14:02:49;24.90;1.00
12847;DHT22;6492;48.128;8.320;2022-09-11T14:06:54;25.30;1.00
12847;DHT22;6492;48.128;8.320;2022-09-11T14:11:00;25.90;1.00
12847;DHT22;6492;48.128;8.320;2022-09-11T14:15:08;26.60;1.00
12847;DHT22;6492;48.128;8.320;2022-09-11T14:19:15;26.60;1.00
12847;DHT22;6492;48.128;8.320;2022-09-11T14:23:24;26.50;1.00
12847;DHT22;6492;48.128;8.320;2022-09-11T14:27:44;26.60;1.00
12847;DHT22;6492;48.128;8.320;2022-09-11T14:31:52;26.70;1.00
12847;DHT22;6492;48.128;8.320;2022-09-11T14:36:02;26.60;1.00
12847;DHT22;6492;48.128;8.320;2022-09-11T14:40:09;26.50;1.00
12847;DHT22;6492;48.128;8.320;2022-09-11T14:44:16;26.70;1.00
12847;DHT22;6492;48.128;8.320;2022-09-11T14:48:20;26.40;1.00
12847;DHT22;6492;48.128;8.320;2022-09-11T14:52:23;25.80;1.00
12847;DHT22;6492;48.128;8.320;2022-09-11T14:56:25;25.00;1.00
12847;DHT22;6492;48.128;8.320;2022-09-11T15:00:29;24.00;1.00
12847;DHT22;6492;48.128;8.320;2022-09-11T15:04:31;23.50;1.00
12847;DHT22;6492;48.128;8.320;2022-09-11T15:08:37;23.20;1.00
12847;DHT22;6492;48.128;8.320;2022-09-11T15:12:38;22.90;1.00
12847;DHT22;6492;48.128;8.320;2022-09-11T15:16:47;22.30;1.00
12847;DHT22;6492;48.128;8.320;2022-09-11T15:20:50;21.90;1.90
12847;DHT22;6492;48.128;8.320;2022-09-11T15:24:52;21.50;3.20
12847;DHT22;6492;48.128;8.320;2022-09-11T15:28:56;21.20;4.90
12847;DHT22;6492;48.128;8.320;2022-09-11T15:32:59;21.00;4.20
12847;DHT22;6492;48.128;8.320;2022-09-11T15:37:01;20.90;5.10
12847;DHT22;6492;48.128;8.320;2022-09-11T15:46:00;20.70;5.90
12847;DHT22;6492;48.128;8.320;2022-09-11T15:50:18;21.10;5.50
12847;DHT22;6492;48.128;8.320;2022-09-11T15:54:24;22.00;3.90
12847;DHT22;6492;48.128;8.320;2022-09-11T15:58:26;22.70;1.70
12847;DHT22;6492;48.128;8.320;2022-09-11T16:02:37;22.70;1.10
12847;DHT22;6492;48.128;8.320;2022-09-11T16:06:42;22.50;1.90
12847;DHT22;6492;48.128;8.320;2022-09-11T16:15:30;21.60;2.80
12847;DHT22;6492;48.128;8.320;2022-09-11T16:19:45;21.60;3.60
12847;DHT22;6492;48.128;8.320;2022-09-11T16:23:55;21.80;3.00
12847;DHT22;6492;48.128;8.320;2022-09-11T16:28:21;21.70;2.20
